sensor_id;sensor_type;location;lat;lon;timestamp;P1;durP1;ratioP1;P2;durP2;ratioP2
1328;SDS011;658;48.820;9.354;2023-07-13T00:00:18;1.97;;;1.40;;
1328;SDS011;658;48.820;9.354;2023-07-13T00:04:20;1.70;;;1.60;;
1328;SDS011;658;48.820;9.354;2023-07-13T00:08:23;1.80;;;1.70;;
1328;SDS011;658;48.820;9.354;2023-07-13T00:12:25;2.17;;;1.70;;
1328;SDS011;658;48.820;9.354;2023-07-13T00:16:30;1.60;;;1.27;;
1328;SDS011;658;48.820;9.354;2023-07-13T00:20:30;1.30;;;1.20;;
1328;SDS011;658;48.820;9.354;2023-07-13T00:24:32;1.03;;;0.93;;
1328;SDS011;658;48.820;9.354;2023-07-13T00:28:36;1.63;;;1.17;;
1328;SDS011;658;48.820;9.354;2023-07-13T00:32:37;1.30;;;1.20;;
1328;SDS011;658;48.820;9.354;2023-07-13T00:36:37;2.73;;;1.40;;
1328;SDS011;658;48.820;9.354;2023-07-13T00:40:40;1.50;;;1.10;;
1328;SDS011;658;48.820;9.354;2023-07-13T00:44:59;1.13;;;1.03;;
1328;SDS011;658;48.820;9.354;2023-07-13T00:49:05;1.43;;;1.10;;
1328;SDS011;658;48.820;9.354;2023-07-13T00:53:08;1.30;;;1.20;;
1328;SDS011;658;48.820;9.354;2023-07-13T00:57:12;1.30;;;1.20;;
1328;SDS011;658;48.820;9.354;2023-07-13T01:01:18;1.80;;;1.30;;
1328;SDS011;658;48.820;9.354;2023-07-13T01:05:20;1.73;;;1.40;;
1328;SDS011;658;48.820;9.354;2023-07-13T01:09:21;2.07;;;1.40;;
1328;SDS011;658;48.820;9.354;2023-07-13T01:13:22;1.17;;;1.10;;
1328;SDS011;658;48.820;9.354;2023-07-13T01:17:23;1.50;;;1.40;;
1328;SDS011;658;48.820;9.354;2023-07-13T01:21:24;2.43;;;1.30;;
1328;SDS011;658;48.820;9.354;2023-07-13T01:25:26;1.20;;;1.10;;
1328;SDS011;658;48.820;9.354;2023-07-13T01:29:26;1.77;;;1.20;;
1328;SDS011;658;48.820;9.354;2023-07-13T01:33:27;1.30;;;1.20;;
1328;SDS011;658;48.820;9.354;2023-07-13T01:37:28;3.17;;;1.83;;
1328;SDS011;658;48.820;9.354;2023-07-13T01:41:33;2.10;;;1.37;;
1328;SDS011;658;48.820;9.354;2023-07-13T01:45:33;1.90;;;1.50;;
1328;SDS011;658;48.820;9.354;2023-07-13T01:49:34;1.97;;;1.30;;
1328;SDS011;658;48.820;9.354;2023-07-13T01:53:35;1.97;;;1.37;;
1328;SDS011;658;48.820;9.354;2023-07-13T01:57:35;1.73;;;1.40;;
1328;SDS011;658;48.820;9.354;2023-07-13T02:01:38;1.50;;;1.40;;
1328;SDS011;658;48.820;9.354;2023-07-13T02:05:39;2.70;;;1.83;;
1328;SDS011;658;48.820;9.354;2023-07-13T02:09:42;1.60;;;1.50;;
1328;SDS011;658;48.820;9.354;2023-07-13T02:13:42;2.53;;;1.40;;
1328;SDS011;658;48.820;9.354;2023-07-13T02:17:43;1.43;;;1.33;;
1328;SDS011;658;48.820;9.354;2023-07-13T02:21:43;1.63;;;1.53;;
1328;SDS011;658;48.820;9.354;2023-07-13T02:25:44;1.40;;;1.30;;
1328;SDS011;658;48.820;9.354;2023-07-13T02:29:45;1.40;;;1.30;;
1328;SDS011;658;48.820;9.354;2023-07-13T02:33:46;1.93;;;1.50;;
1328;SDS011;658;48.820;9.354;2023-07-13T02:37:46;1.77;;;1.63;;
1328;SDS011;658;48.820;9.354;2023-07-13T02:41:47;1.50;;;1.40;;
1328;SDS011;658;48.820;9.354;2023-07-13T02:45:50;1.50;;;1.40;;
1328;SDS011;658;48.820;9.354;2023-07-13T02:49:53;1.60;;;1.50;;
1328;SDS011;658;48.820;9.354;2023-07-13T02:53:53;1.70;;;1.60;;
1328;SDS011;658;48.820;9.354;2023-07-13T02:57:54;2.00;;;1.60;;
1328;SDS011;658;48.820;9.354;2023-07-13T03:01:55;1.70;;;1.47;;
1328;SDS011;658;48.820;9.354;2023-07-13T03:05:59;2.47;;;1.47;;
1328;SDS011;658;48.820;9.354;2023-07-13T03:10:02;2.23;;;1.33;;
1328;SDS011;658;48.820;9.354;2023-07-13T03:14:02;1.87;;;1.67;;
1328;SDS011;658;48.820;9.354;2023-07-13T03:18:03;1.57;;;1.47;;
1328;SDS011;658;48.820;9.354;2023-07-13T03:22:05;1.43;;;1.33;;
1328;SDS011;658;48.820;9.354;2023-07-13T03:26:09;1.70;;;1.30;;
1328;SDS011;658;48.820;9.354;2023-07-13T03:30:14;1.80;;;1.70;;
1328;SDS011;658;48.820;9.354;2023-07-13T03:34:14;1.90;;;1.30;;
1328;SDS011;658;48.820;9.354;2023-07-13T03:38:15;1.80;;;1.50;;
1328;SDS011;658;48.820;9.354;2023-07-13T03:42:18;1.80;;;1.33;;
1328;SDS011;658;48.820;9.354;2023-07-13T03:46:19;2.20;;;1.50;;
1328;SDS011;658;48.820;9.354;2023-07-13T03:50:20;1.80;;;1.70;;
1328;SDS011;658;48.820;9.354;2023-07-13T03:54:20;2.13;;;1.53;;
1328;SDS011;658;48.820;9.354;2023-07-13T03:58:28;1.80;;;1.43;;
1328;SDS011;658;48.820;9.354;2023-07-13T04:02:31;1.73;;;1.37;;
1328;SDS011;658;48.820;9.354;2023-07-13T04:06:34;1.30;;;1.20;;
1328;SDS011;658;48.820;9.354;2023-07-13T04:10:34;4.20;;;1.30;;
1328;SDS011;658;48.820;9.354;2023-07-13T04:14:35;1.40;;;1.30;;
1328;SDS011;658;48.820;9.354;2023-07-13T04:18:36;1.40;;;1.30;;
1328;SDS011;658;48.820;9.354;2023-07-13T04:22:36;2.03;;;1.83;;
1328;SDS011;658;48.820;9.354;2023-07-13T04:26:41;2.33;;;1.63;;
1328;SDS011;658;48.820;9.354;2023-07-13T04:30:45;2.73;;;1.70;;
1328;SDS011;658;48.820;9.354;2023-07-13T04:34:45;1.57;;;1.47;;
1328;SDS011;658;48.820;9.354;2023-07-13T04:38:46;1.83;;;1.60;;
1328;SDS011;658;48.820;9.354;2023-07-13T04:42:46;1.97;;;1.87;;
1328;SDS011;658;48.820;9.354;2023-07-13T04:46:47;1.83;;;1.70;;
1328;SDS011;658;48.820;9.354;2023-07-13T04:50:48;3.03;;;1.83;;
1328;SDS011;658;48.820;9.354;2023-07-13T04:54:55;2.28;;;2.00;;
1328;SDS011;658;48.820;9.354;2023-07-13T04:58:56;3.07;;;2.40;;
1328;SDS011;658;48.820;9.354;2023-07-13T05:02:59;3.07;;;1.80;;
1328;SDS011;658;48.820;9.354;2023-07-13T05:07:03;2.20;;;2.00;;
1328;SDS011;658;48.820;9.354;2023-07-13T05:11:03;4.20;;;1.87;;
1328;SDS011;658;48.820;9.354;2023-07-13T05:15:05;1.80;;;1.47;;
1328;SDS011;658;48.820;9.354;2023-07-13T05:19:06;3.10;;;2.13;;
1328;SDS011;658;48.820;9.354;2023-07-13T05:23:07;1.90;;;1.80;;
1328;SDS011;658;48.820;9.354;2023-07-13T05:27:08;3.73;;;2.07;;
1328;SDS011;658;48.820;9.354;2023-07-13T05:31:08;4.73;;;2.17;;
1328;SDS011;658;48.820;9.354;2023-07-13T05:35:09;2.10;;;1.90;;
1328;SDS011;658;48.820;9.354;2023-07-13T05:39:10;2.00;;;1.90;;
1328;SDS011;658;48.820;9.354;2023-07-13T05:43:11;3.53;;;2.73;;
1328;SDS011;658;48.820;9.354;2023-07-13T05:47:13;4.77;;;2.20;;
1328;SDS011;658;48.820;9.354;2023-07-13T05:51:14;2.50;;;1.83;;
1328;SDS011;658;48.820;9.354;2023-07-13T05:55:15;2.30;;;2.10;;
1328;SDS011;658;48.820;9.354;2023-07-13T05:59:17;2.83;;;2.33;;
1328;SDS011;658;48.820;9.354;2023-07-13T06:03:18;2.57;;;2.37;;
1328;SDS011;658;48.820;9.354;2023-07-13T06:07:21;4.33;;;2.17;;
1328;SDS011;658;48.820;9.354;2023-07-13T06:11:22;2.43;;;2.10;;
1328;SDS011;658;48.820;9.354;2023-07-13T06:15:24;3.23;;;2.23;;
1328;SDS011;658;48.820;9.354;2023-07-13T06:19:28;2.70;;;2.00;;
1328;SDS011;658;48.820;9.354;2023-07-13T06:23:31;2.60;;;2.17;;
1328;SDS011;658;48.820;9.354;2023-07-13T06:27:31;2.43;;;2.23;;
1328;SDS011;658;48.820;9.354;2023-07-13T06:31:32;2.93;;;2.00;;
1328;SDS011;658;48.820;9.354;2023-07-13T06:35:33;4.57;;;2.30;;
1328;SDS011;658;48.820;9.354;2023-07-13T06:39:33;3.30;;;2.30;;
1328;SDS011;658;48.820;9.354;2023-07-13T06:43:34;3.83;;;2.30;;
1328;SDS011;658;48.820;9.354;2023-07-13T06:47:34;2.70;;;2.00;;
1328;SDS011;658;48.820;9.354;2023-07-13T06:51:35;2.50;;;1.97;;
1328;SDS011;658;48.820;9.354;2023-07-13T06:55:38;2.43;;;2.23;;
1328;SDS011;658;48.820;9.354;2023-07-13T06:59:39;2.27;;;2.07;;
1328;SDS011;658;48.820;9.354;2023-07-13T07:03:40;1.83;;;1.73;;
1328;SDS011;658;48.820;9.354;2023-07-13T07:07:40;3.60;;;2.20;;
1328;SDS011;658;48.820;9.354;2023-07-13T07:11:41;3.50;;;2.20;;
1328;SDS011;658;48.820;9.354;2023-07-13T07:15:42;4.47;;;2.20;;
1328;SDS011;658;48.820;9.354;2023-07-13T07:19:43;1.93;;;1.83;;
1328;SDS011;658;48.820;9.354;2023-07-13T07:23:43;2.67;;;1.60;;
1328;SDS011;658;48.820;9.354;2023-07-13T07:27:44;3.57;;;1.83;;
1328;SDS011;658;48.820;9.354;2023-07-13T07:31:45;1.80;;;1.70;;
1328;SDS011;658;48.820;9.354;2023-07-13T07:35:46;4.33;;;1.57;;
1328;SDS011;658;48.820;9.354;2023-07-13T07:39:46;1.90;;;1.80;;
1328;SDS011;658;48.820;9.354;2023-07-13T07:43:47;3.33;;;1.63;;
1328;SDS011;658;48.820;9.354;2023-07-13T07:47:50;1.90;;;1.80;;
1328;SDS011;658;48.820;9.354;2023-07-13T07:51:54;1.80;;;1.40;;
1328;SDS011;658;48.820;9.354;2023-07-13T07:55:57;2.20;;;1.50;;
1328;SDS011;658;48.820;9.354;2023-07-13T07:59:58;1.67;;;1.57;;
1328;SDS011;658;48.820;9.354;2023-07-13T08:03:59;2.33;;;1.60;;
1328;SDS011;658;48.820;9.354;2023-07-13T08:08:01;1.80;;;1.47;;
1328;SDS011;658;48.820;9.354;2023-07-13T08:12:02;2.57;;;1.50;;
1328;SDS011;658;48.820;9.354;2023-07-13T08:16:04;1.60;;;1.20;;
1328;SDS011;658;48.820;9.354;2023-07-13T08:20:06;1.93;;;1.43;;
1328;SDS011;658;48.820;9.354;2023-07-13T08:24:07;2.40;;;1.63;;
1328;SDS011;658;48.820;9.354;2023-07-13T08:28:07;2.73;;;1.60;;
1328;SDS011;658;48.820;9.354;2023-07-13T08:32:08;1.60;;;1.50;;
1328;SDS011;658;48.820;9.354;2023-07-13T08:36:09;1.60;;;1.50;;
1328;SDS011;658;48.820;9.354;2023-07-13T08:40:10;2.00;;;1.30;;
1328;SDS011;658;48.820;9.354;2023-07-13T08:44:16;2.23;;;1.67;;
1328;SDS011;658;48.820;9.354;2023-07-13T08:56:31;2.20;;;1.57;;
1328;SDS011;658;48.820;9.354;2023-07-13T09:00:34;2.27;;;1.50;;
1328;SDS011;658;48.820;9.354;2023-07-13T09:05:17;3.57;;;1.80;;
1328;SDS011;658;48.820;9.354;2023-07-13T09:09:31;2.00;;;1.53;;
1328;SDS011;658;48.820;9.354;2023-07-13T09:18:08;3.20;;;2.00;;
1328;SDS011;658;48.820;9.354;2023-07-13T09:22:14;2.83;;;1.33;;
1328;SDS011;658;48.820;9.354;2023-07-13T09:26:22;3.10;;;1.70;;
1328;SDS011;658;48.820;9.354;2023-07-13T09:30:26;1.60;;;1.50;;
1328;SDS011;658;48.820;9.354;2023-07-13T09:34:53;2.60;;;1.50;;
1328;SDS011;658;48.820;9.354;2023-07-13T09:39:15;1.93;;;1.73;;
1328;SDS011;658;48.820;9.354;2023-07-13T09:43:19;2.30;;;1.80;;
1328;SDS011;658;48.820;9.354;2023-07-13T09:47:31;2.33;;;1.70;;
1328;SDS011;658;48.820;9.354;2023-07-13T09:51:34;5.00;;;2.00;;
1328;SDS011;658;48.820;9.354;2023-07-13T09:55:37;2.93;;;1.87;;
1328;SDS011;658;48.820;9.354;2023-07-13T09:59:49;3.50;;;1.53;;
1328;SDS011;658;48.820;9.354;2023-07-13T10:03:53;4.53;;;2.03;;
1328;SDS011;658;48.820;9.354;2023-07-13T10:07:55;3.80;;;1.90;;
1328;SDS011;658;48.820;9.354;2023-07-13T10:11:56;1.70;;;1.60;;
1328;SDS011;658;48.820;9.354;2023-07-13T10:15:57;2.80;;;1.90;;
1328;SDS011;658;48.820;9.354;2023-07-13T10:20:03;3.33;;;2.00;;
1328;SDS011;658;48.820;9.354;2023-07-13T10:32:26;1.90;;;1.40;;
1328;SDS011;658;48.820;9.354;2023-07-13T10:36:34;1.80;;;1.60;;
1328;SDS011;658;48.820;9.354;2023-07-13T10:40:45;2.13;;;1.73;;
1328;SDS011;658;48.820;9.354;2023-07-13T10:44:52;1.70;;;1.60;;
1328;SDS011;658;48.820;9.354;2023-07-13T10:48:57;1.70;;;1.40;;
1328;SDS011;658;48.820;9.354;2023-07-13T10:53:15;2.50;;;1.63;;
1328;SDS011;658;48.820;9.354;2023-07-13T10:57:20;3.03;;;2.13;;
1328;SDS011;658;48.820;9.354;2023-07-13T11:01:21;1.60;;;1.50;;
1328;SDS011;658;48.820;9.354;2023-07-13T11:09:40;3.60;;;1.70;;
1328;SDS011;658;48.820;9.354;2023-07-13T11:17:54;1.27;;;1.17;;
1328;SDS011;658;48.820;9.354;2023-07-13T11:34:57;1.20;;;1.10;;
1328;SDS011;658;48.820;9.354;2023-07-13T11:39:03;2.07;;;1.20;;
1328;SDS011;658;48.820;9.354;2023-07-13T11:43:11;2.57;;;1.47;;
1328;SDS011;658;48.820;9.354;2023-07-13T11:47:18;1.97;;;1.33;;
1328;SDS011;658;48.820;9.354;2023-07-13T11:51:32;1.47;;;1.30;;
1328;SDS011;658;48.820;9.354;2023-07-13T11:55:37;1.40;;;1.30;;
1328;SDS011;658;48.820;9.354;2023-07-13T11:59:38;1.40;;;1.20;;
1328;SDS011;658;48.820;9.354;2023-07-13T12:03:40;1.40;;;1.17;;
1328;SDS011;658;48.820;9.354;2023-07-13T12:07:41;1.33;;;1.10;;
1328;SDS011;658;48.820;9.354;2023-07-13T12:11:42;1.07;;;1.07;;
1328;SDS011;658;48.820;9.354;2023-07-13T12:15:44;1.00;;;1.00;;
1328;SDS011;658;48.820;9.354;2023-07-13T12:19:47;1.23;;;1.13;;
1328;SDS011;658;48.820;9.354;2023-07-13T12:23:49;1.20;;;1.10;;
1328;SDS011;658;48.820;9.354;2023-07-13T12:27:50;1.30;;;1.10;;
1328;SDS011;658;48.820;9.354;2023-07-13T12:31:51;1.40;;;1.30;;
1328;SDS011;658;48.820;9.354;2023-07-13T12:35:55;1.10;;;1.00;;
1328;SDS011;658;48.820;9.354;2023-07-13T12:39:57;1.20;;;1.00;;
1328;SDS011;658;48.820;9.354;2023-07-13T12:43:57;1.17;;;1.07;;
1328;SDS011;658;48.820;9.354;2023-07-13T12:48:03;1.17;;;1.10;;
1328;SDS011;658;48.820;9.354;2023-07-13T12:52:20;1.30;;;1.10;;
1328;SDS011;658;48.820;9.354;2023-07-13T12:56:24;1.53;;;1.33;;
1328;SDS011;658;48.820;9.354;2023-07-13T13:00:35;1.40;;;1.30;;
1328;SDS011;658;48.820;9.354;2023-07-13T13:04:39;1.17;;;1.07;;
1328;SDS011;658;48.820;9.354;2023-07-13T13:08:42;2.97;;;1.37;;
1328;SDS011;658;48.820;9.354;2023-07-13T13:12:43;1.30;;;1.20;;
1328;SDS011;658;48.820;9.354;2023-07-13T13:16:48;1.80;;;1.30;;
1328;SDS011;658;48.820;9.354;2023-07-13T13:20:51;1.70;;;1.20;;
1328;SDS011;658;48.820;9.354;2023-07-13T13:24:51;1.73;;;1.07;;
1328;SDS011;658;48.820;9.354;2023-07-13T13:28:52;1.63;;;1.10;;
1328;SDS011;658;48.820;9.354;2023-07-13T13:32:53;1.20;;;1.10;;
1328;SDS011;658;48.820;9.354;2023-07-13T13:36:54;0.90;;;0.90;;
1328;SDS011;658;48.820;9.354;2023-07-13T13:40:55;1.33;;;1.20;;
1328;SDS011;658;48.820;9.354;2023-07-13T13:44:56;4.23;;;1.23;;
1328;SDS011;658;48.820;9.354;2023-07-13T13:48:56;1.13;;;1.00;;
1328;SDS011;658;48.820;9.354;2023-07-13T13:52:57;1.20;;;0.97;;
1328;SDS011;658;48.820;9.354;2023-07-13T13:57:02;1.20;;;0.90;;
1328;SDS011;658;48.820;9.354;2023-07-13T14:01:04;1.27;;;0.87;;
1328;SDS011;658;48.820;9.354;2023-07-13T14:05:12;1.00;;;1.00;;
1328;SDS011;658;48.820;9.354;2023-07-13T14:09:15;0.80;;;0.80;;
1328;SDS011;658;48.820;9.354;2023-07-13T14:13:21;1.90;;;1.30;;
1328;SDS011;658;48.820;9.354;2023-07-13T14:17:27;1.20;;;1.10;;
1328;SDS011;658;48.820;9.354;2023-07-13T14:21:28;2.43;;;1.27;;
1328;SDS011;658;48.820;9.354;2023-07-13T14:25:29;2.13;;;1.00;;
1328;SDS011;658;48.820;9.354;2023-07-13T14:29:30;0.90;;;0.90;;
1328;SDS011;658;48.820;9.354;2023-07-13T14:33:32;4.97;;;1.07;;
1328;SDS011;658;48.820;9.354;2023-07-13T14:37:33;2.60;;;1.10;;
1328;SDS011;658;48.820;9.354;2023-07-13T14:41:34;1.13;;;1.00;;
1328;SDS011;658;48.820;9.354;2023-07-13T14:45:34;1.37;;;0.90;;
1328;SDS011;658;48.820;9.354;2023-07-13T14:49:42;2.50;;;1.27;;
1328;SDS011;658;48.820;9.354;2023-07-13T14:53:43;1.00;;;0.90;;
1328;SDS011;658;48.820;9.354;2023-07-13T14:57:46;1.30;;;0.90;;
1328;SDS011;658;48.820;9.354;2023-07-13T15:01:47;0.80;;;0.80;;
1328;SDS011;658;48.820;9.354;2023-07-13T15:05:49;0.90;;;0.87;;
1328;SDS011;658;48.820;9.354;2023-07-13T15:09:50;2.00;;;1.00;;
1328;SDS011;658;48.820;9.354;2023-07-13T15:13:51;1.43;;;1.20;;
1328;SDS011;658;48.820;9.354;2023-07-13T15:17:53;0.80;;;0.80;;
1328;SDS011;658;48.820;9.354;2023-07-13T15:21:55;1.43;;;1.10;;
1328;SDS011;658;48.820;9.354;2023-07-13T15:25:57;1.27;;;1.00;;
1328;SDS011;658;48.820;9.354;2023-07-13T15:29:58;0.97;;;0.90;;
1328;SDS011;658;48.820;9.354;2023-07-13T15:33:59;1.70;;;1.10;;
1328;SDS011;658;48.820;9.354;2023-07-13T15:38:00;0.80;;;0.80;;
1328;SDS011;658;48.820;9.354;2023-07-13T15:42:02;1.67;;;1.00;;
1328;SDS011;658;48.820;9.354;2023-07-13T15:46:05;3.80;;;0.70;;
1328;SDS011;658;48.820;9.354;2023-07-13T15:50:07;1.30;;;0.97;;
1328;SDS011;658;48.820;9.354;2023-07-13T15:54:13;1.03;;;1.00;;
1328;SDS011;658;48.820;9.354;2023-07-13T15:58:16;4.83;;;1.43;;
1328;SDS011;658;48.820;9.354;2023-07-13T16:02:20;3.90;;;1.10;;
1328;SDS011;658;48.820;9.354;2023-07-13T16:06:24;1.20;;;0.90;;
1328;SDS011;658;48.820;9.354;2023-07-13T16:10:39;1.33;;;0.97;;
1328;SDS011;658;48.820;9.354;2023-07-13T16:14:40;1.27;;;1.17;;
1328;SDS011;658;48.820;9.354;2023-07-13T16:18:42;0.83;;;0.80;;
1328;SDS011;658;48.820;9.354;2023-07-13T16:22:45;0.80;;;0.80;;
1328;SDS011;658;48.820;9.354;2023-07-13T16:26:48;1.73;;;1.00;;
1328;SDS011;658;48.820;9.354;2023-07-13T16:30:49;2.00;;;1.00;;
1328;SDS011;658;48.820;9.354;2023-07-13T16:34:52;1.47;;;0.90;;
1328;SDS011;658;48.820;9.354;2023-07-13T16:38:53;0.90;;;0.90;;
1328;SDS011;658;48.820;9.354;2023-07-13T16:42:54;1.17;;;1.00;;
1328;SDS011;658;48.820;9.354;2023-07-13T16:46:56;2.03;;;0.97;;
1328;SDS011;658;48.820;9.354;2023-07-13T16:51:00;1.23;;;1.00;;
1328;SDS011;658;48.820;9.354;2023-07-13T16:55:01;1.20;;;1.10;;
1328;SDS011;658;48.820;9.354;2023-07-13T16:59:01;1.73;;;0.80;;
1328;SDS011;658;48.820;9.354;2023-07-13T17:03:09;1.17;;;1.10;;
1328;SDS011;658;48.820;9.354;2023-07-13T17:07:12;0.80;;;0.80;;
1328;SDS011;658;48.820;9.354;2023-07-13T17:11:13;1.13;;;0.97;;
1328;SDS011;658;48.820;9.354;2023-07-13T17:15:15;2.70;;;1.10;;
1328;SDS011;658;48.820;9.354;2023-07-13T17:19:17;1.27;;;1.10;;
1328;SDS011;658;48.820;9.354;2023-07-13T17:23:19;1.00;;;0.63;;
1328;SDS011;658;48.820;9.354;2023-07-13T17:27:25;1.17;;;1.00;;
1328;SDS011;658;48.820;9.354;2023-07-13T17:31:25;1.53;;;1.00;;
1328;SDS011;658;48.820;9.354;2023-07-13T17:35:28;4.10;;;0.97;;
1328;SDS011;658;48.820;9.354;2023-07-13T17:39:30;0.60;;;0.60;;
1328;SDS011;658;48.820;9.354;2023-07-13T17:43:30;1.00;;;0.83;;
1328;SDS011;658;48.820;9.354;2023-07-13T17:47:33;1.10;;;1.00;;
1328;SDS011;658;48.820;9.354;2023-07-13T17:51:37;1.00;;;0.80;;
1328;SDS011;658;48.820;9.354;2023-07-13T17:55:41;0.93;;;0.93;;
1328;SDS011;658;48.820;9.354;2023-07-13T17:59:41;1.13;;;1.03;;
1328;SDS011;658;48.820;9.354;2023-07-13T18:03:43;1.23;;;0.80;;
1328;SDS011;658;48.820;9.354;2023-07-13T18:07:44;0.97;;;0.90;;
1328;SDS011;658;48.820;9.354;2023-07-13T18:11:46;1.37;;;0.90;;
1328;SDS011;658;48.820;9.354;2023-07-13T18:15:47;1.27;;;1.17;;
1328;SDS011;658;48.820;9.354;2023-07-13T18:19:50;8.03;;;1.20;;
1328;SDS011;658;48.820;9.354;2023-07-13T18:23:53;1.97;;;1.13;;
1328;SDS011;658;48.820;9.354;2023-07-13T18:27:54;0.80;;;0.80;;
1328;SDS011;658;48.820;9.354;2023-07-13T18:31:55;0.80;;;0.80;;
1328;SDS011;658;48.820;9.354;2023-07-13T18:35:58;1.20;;;0.77;;
1328;SDS011;658;48.820;9.354;2023-07-13T18:40:00;1.40;;;0.90;;
1328;SDS011;658;48.820;9.354;2023-07-13T18:44:01;1.10;;;0.90;;
1328;SDS011;658;48.820;9.354;2023-07-13T18:48:01;1.23;;;0.90;;
1328;SDS011;658;48.820;9.354;2023-07-13T18:52:07;2.87;;;0.93;;
1328;SDS011;658;48.820;9.354;2023-07-13T18:56:16;0.93;;;0.83;;
1328;SDS011;658;48.820;9.354;2023-07-13T19:00:17;2.20;;;0.80;;
1328;SDS011;658;48.820;9.354;2023-07-13T19:08:32;1.63;;;0.90;;
1328;SDS011;658;48.820;9.354;2023-07-13T19:12:33;0.80;;;0.80;;
1328;SDS011;658;48.820;9.354;2023-07-13T19:16:35;0.90;;;0.90;;
1328;SDS011;658;48.820;9.354;2023-07-13T19:20:36;1.57;;;1.23;;
1328;SDS011;658;48.820;9.354;2023-07-13T19:24:36;0.80;;;0.80;;
1328;SDS011;658;48.820;9.354;2023-07-13T19:28:39;1.07;;;0.97;;
1328;SDS011;658;48.820;9.354;2023-07-13T19:32:42;1.43;;;0.70;;
1328;SDS011;658;48.820;9.354;2023-07-13T19:36:43;1.30;;;0.90;;
1328;SDS011;658;48.820;9.354;2023-07-13T19:40:44;0.87;;;0.87;;
1328;SDS011;658;48.820;9.354;2023-07-13T19:44:46;0.80;;;0.80;;
1328;SDS011;658;48.820;9.354;2023-07-13T19:48:47;0.87;;;0.70;;
1328;SDS011;658;48.820;9.354;2023-07-13T19:52:49;0.80;;;0.80;;
1328;SDS011;658;48.820;9.354;2023-07-13T19:56:55;1.00;;;0.90;;
1328;SDS011;658;48.820;9.354;2023-07-13T20:00:57;1.30;;;1.20;;
1328;SDS011;658;48.820;9.354;2023-07-13T20:04:59;5.07;;;2.00;;
1328;SDS011;658;48.820;9.354;2023-07-13T20:09:01;3.87;;;2.03;;
1328;SDS011;658;48.820;9.354;2023-07-13T20:13:08;3.87;;;2.03;;
1328;SDS011;658;48.820;9.354;2023-07-13T20:17:31;4.30;;;2.13;;
1328;SDS011;658;48.820;9.354;2023-07-13T20:21:34;2.77;;;2.10;;
1328;SDS011;658;48.820;9.354;2023-07-13T20:25:35;2.17;;;1.70;;
1328;SDS011;658;48.820;9.354;2023-07-13T20:29:36;2.70;;;2.00;;
1328;SDS011;658;48.820;9.354;2023-07-13T20:33:36;4.50;;;2.40;;
1328;SDS011;658;48.820;9.354;2023-07-13T20:37:38;3.00;;;2.10;;
1328;SDS011;658;48.820;9.354;2023-07-13T20:41:38;5.60;;;2.53;;
1328;SDS011;658;48.820;9.354;2023-07-13T20:45:39;2.60;;;2.03;;
1328;SDS011;658;48.820;9.354;2023-07-13T20:49:40;2.53;;;1.80;;
1328;SDS011;658;48.820;9.354;2023-07-13T20:53:42;3.10;;;1.73;;
1328;SDS011;658;48.820;9.354;2023-07-13T20:57:44;2.67;;;2.03;;
1328;SDS011;658;48.820;9.354;2023-07-13T21:01:46;4.13;;;2.30;;
1328;SDS011;658;48.820;9.354;2023-07-13T21:05:47;3.50;;;1.90;;
1328;SDS011;658;48.820;9.354;2023-07-13T21:09:48;5.87;;;1.50;;
1328;SDS011;658;48.820;9.354;2023-07-13T21:13:48;3.20;;;1.80;;
1328;SDS011;658;48.820;9.354;2023-07-13T21:17:49;2.03;;;1.70;;
1328;SDS011;658;48.820;9.354;2023-07-13T21:21:52;3.37;;;1.37;;
1328;SDS011;658;48.820;9.354;2023-07-13T21:25:55;2.97;;;2.03;;
1328;SDS011;658;48.820;9.354;2023-07-13T21:29:56;2.27;;;2.07;;
1328;SDS011;658;48.820;9.354;2023-07-13T21:33:58;3.70;;;2.27;;
1328;SDS011;658;48.820;9.354;2023-07-13T21:38:00;2.80;;;2.20;;
1328;SDS011;658;48.820;9.354;2023-07-13T21:42:01;2.60;;;2.07;;
1328;SDS011;658;48.820;9.354;2023-07-13T21:46:02;2.60;;;2.17;;
1328;SDS011;658;48.820;9.354;2023-07-13T21:50:05;5.03;;;2.17;;
1328;SDS011;658;48.820;9.354;2023-07-13T21:54:17;3.40;;;1.97;;
1328;SDS011;658;48.820;9.354;2023-07-13T21:58:22;2.73;;;2.20;;
1328;SDS011;658;48.820;9.354;2023-07-13T22:02:30;2.70;;;2.33;;
1328;SDS011;658;48.820;9.354;2023-07-13T22:06:31;2.30;;;2.10;;
1328;SDS011;658;48.820;9.354;2023-07-13T22:10:32;2.77;;;1.90;;
1328;SDS011;658;48.820;9.354;2023-07-13T22:14:33;2.20;;;2.00;;
1328;SDS011;658;48.820;9.354;2023-07-13T22:18:36;2.13;;;1.70;;
1328;SDS011;658;48.820;9.354;2023-07-13T22:22:36;2.57;;;2.27;;
1328;SDS011;658;48.820;9.354;2023-07-13T22:26:37;1.83;;;1.73;;
1328;SDS011;658;48.820;9.354;2023-07-13T22:30:37;2.40;;;1.93;;
1328;SDS011;658;48.820;9.354;2023-07-13T22:34:40;2.47;;;2.10;;
1328;SDS011;658;48.820;9.354;2023-07-13T22:38:41;2.10;;;1.90;;
1328;SDS011;658;48.820;9.354;2023-07-13T22:42:42;2.47;;;1.70;;
1328;SDS011;658;48.820;9.354;2023-07-13T22:46:42;1.83;;;1.70;;
1328;SDS011;658;48.820;9.354;2023-07-13T22:50:43;3.37;;;2.27;;
1328;SDS011;658;48.820;9.354;2023-07-13T22:54:44;1.50;;;1.40;;
1328;SDS011;658;48.820;9.354;2023-07-13T22:58:46;2.00;;;1.80;;
1328;SDS011;658;48.820;9.354;2023-07-13T23:02:46;2.13;;;2.00;;
1328;SDS011;658;48.820;9.354;2023-07-13T23:06:47;2.67;;;1.90;;
1328;SDS011;658;48.820;9.354;2023-07-13T23:10:51;2.07;;;1.80;;
1328;SDS011;658;48.820;9.354;2023-07-13T23:15:01;2.10;;;1.70;;
1328;SDS011;658;48.820;9.354;2023-07-13T23:19:01;2.30;;;2.10;;
1328;SDS011;658;48.820;9.354;2023-07-13T23:23:05;2.17;;;1.97;;
1328;SDS011;658;48.820;9.354;2023-07-13T23:27:09;1.60;;;1.50;;
1328;SDS011;658;48.820;9.354;2023-07-13T23:31:10;2.50;;;1.93;;
1328;SDS011;658;48.820;9.354;2023-07-13T23:35:16;2.03;;;1.93;;
1328;SDS011;658;48.820;9.354;2023-07-13T23:39:18;2.23;;;1.70;;
1328;SDS011;658;48.820;9.354;2023-07-13T23:43:20;1.90;;;1.80;;
1328;SDS011;658;48.820;9.354;2023-07-13T23:47:21;1.90;;;1.70;;
1328;SDS011;658;48.820;9.354;2023-07-13T23:51:22;2.23;;;2.10;;
1328;SDS011;658;48.820;9.354;2023-07-13T23:55:24;2.10;;;1.90;;
1328;SDS011;658;48.820;9.354;2023-07-13T23:59:27;2.10;;;1.63;;
